sensor_id;sensor_type;location;lat;lon;timestamp;temperature;humidity
20803;DHT22;10562;-33.856;151.182;2023-06-19T00:01:20;10.20;99.90
20803;DHT22;10562;-33.856;151.182;2023-06-19T00:03:52;10.40;99.90
20803;DHT22;10562;-33.856;151.182;2023-06-19T00:06:23;10.40;99.90
20803;DHT22;10562;-33.856;151.182;2023-06-19T00:08:54;10.50;99.90
20803;DHT22;10562;-33.856;151.182;2023-06-19T00:11:25;10.60;99.90
20803;DHT22;10562;-33.856;151.182;2023-06-19T00:13:56;10.60;99.90
20803;DHT22;10562;-33.856;151.182;2023-06-19T00:16:27;10.70;99.90
20803;DHT22;10562;-33.856;151.182;2023-06-19T00:18:59;10.90;99.90
20803;DHT22;10562;-33.856;151.182;2023-06-19T00:21:31;11.10;99.90
20803;DHT22;10562;-33.856;151.182;2023-06-19T00:24:02;11.20;99.90
20803;DHT22;10562;-33.856;151.182;2023-06-19T00:26:32;11.40;99.90
20803;DHT22;10562;-33.856;151.182;2023-06-19T00:29:03;11.50;99.90
20803;DHT22;10562;-33.856;151.182;2023-06-19T00:31:35;11.60;99.90
20803;DHT22;10562;-33.856;151.182;2023-06-19T00:34:08;11.80;99.90
20803;DHT22;10562;-33.856;151.182;2023-06-19T00:36:39;11.90;99.90
20803;DHT22;10562;-33.856;151.182;2023-06-19T00:39:10;12.00;99.90
20803;DHT22;10562;-33.856;151.182;2023-06-19T00:41:42;12.10;99.90
20803;DHT22;10562;-33.856;151.182;2023-06-19T00:44:15;12.20;99.90
20803;DHT22;10562;-33.856;151.182;2023-06-19T00:46:46;12.40;99.90
20803;DHT22;10562;-33.856;151.182;2023-06-19T00:49:19;12.60;99.90
20803;DHT22;10562;-33.856;151.182;2023-06-19T00:51:52;12.70;99.90
20803;DHT22;10562;-33.856;151.182;2023-06-19T00:54:23;12.80;99.90
20803;DHT22;10562;-33.856;151.182;2023-06-19T00:56:54;12.60;99.90
20803;DHT22;10562;-33.856;151.182;2023-06-19T00:59:25;12.50;99.90
20803;DHT22;10562;-33.856;151.182;2023-06-19T01:01:57;12.50;99.90
20803;DHT22;10562;-33.856;151.182;2023-06-19T01:04:30;12.60;99.90
20803;DHT22;10562;-33.856;151.182;2023-06-19T01:07:04;12.60;99.90
20803;DHT22;10562;-33.856;151.182;2023-06-19T01:09:40;12.80;99.90
20803;DHT22;10562;-33.856;151.182;2023-06-19T01:12:18;12.90;99.90
20803;DHT22;10562;-33.856;151.182;2023-06-19T01:14:53;13.00;99.90
20803;DHT22;10562;-33.856;151.182;2023-06-19T01:17:24;13.10;99.90
20803;DHT22;10562;-33.856;151.182;2023-06-19T01:19:57;13.20;99.90
20803;DHT22;10562;-33.856;151.182;2023-06-19T01:22:31;13.30;99.90
20803;DHT22;10562;-33.856;151.182;2023-06-19T01:25:02;13.30;99.90
20803;DHT22;10562;-33.856;151.182;2023-06-19T01:27:34;13.40;99.90
20803;DHT22;10562;-33.856;151.182;2023-06-19T01:30:06;13.50;99.90
20803;DHT22;10562;-33.856;151.182;2023-06-19T01:32:44;13.60;99.90
20803;DHT22;10562;-33.856;151.182;2023-06-19T01:35:21;13.70;99.90
20803;DHT22;10562;-33.856;151.182;2023-06-19T01:37:55;13.80;99.90
20803;DHT22;10562;-33.856;151.182;2023-06-19T01:40:28;13.90;99.90
20803;DHT22;10562;-33.856;151.182;2023-06-19T01:43:01;13.80;99.90
20803;DHT22;10562;-33.856;151.182;2023-06-19T01:45:32;14.10;99.90
20803;DHT22;10562;-33.856;151.182;2023-06-19T01:48:03;14.10;99.90
20803;DHT22;10562;-33.856;151.182;2023-06-19T01:50:34;14.20;99.90
20803;DHT22;10562;-33.856;151.182;2023-06-19T01:53:06;14.30;99.90
20803;DHT22;10562;-33.856;151.182;2023-06-19T01:55:37;14.40;99.90
20803;DHT22;10562;-33.856;151.182;2023-06-19T01:58:08;14.40;99.90
20803;DHT22;10562;-33.856;151.182;2023-06-19T02:00:39;14.40;99.90
20803;DHT22;10562;-33.856;151.182;2023-06-19T02:03:10;14.60;99.90
20803;DHT22;10562;-33.856;151.182;2023-06-19T02:05:40;14.80;99.90
20803;DHT22;10562;-33.856;151.182;2023-06-19T02:08:14;14.90;99.90
20803;DHT22;10562;-33.856;151.182;2023-06-19T02:10:44;14.80;99.90
20803;DHT22;10562;-33.856;151.182;2023-06-19T02:13:15;15.00;99.90
20803;DHT22;10562;-33.856;151.182;2023-06-19T02:15:46;15.10;99.90
20803;DHT22;10562;-33.856;151.182;2023-06-19T02:18:16;15.00;99.90
20803;DHT22;10562;-33.856;151.182;2023-06-19T02:20:47;14.90;99.90
20803;DHT22;10562;-33.856;151.182;2023-06-19T02:23:20;14.90;99.90
20803;DHT22;10562;-33.856;151.182;2023-06-19T02:25:51;15.00;99.90
20803;DHT22;10562;-33.856;151.182;2023-06-19T02:28:21;15.10;99.90
20803;DHT22;10562;-33.856;151.182;2023-06-19T02:30:53;15.00;99.90
20803;DHT22;10562;-33.856;151.182;2023-06-19T02:33:24;15.10;99.90
20803;DHT22;10562;-33.856;151.182;2023-06-19T02:35:55;15.00;99.90
20803;DHT22;10562;-33.856;151.182;2023-06-19T02:38:29;15.10;99.90
20803;DHT22;10562;-33.856;151.182;2023-06-19T02:40:59;15.20;99.90
20803;DHT22;10562;-33.856;151.182;2023-06-19T02:43:32;15.20;99.90
20803;DHT22;10562;-33.856;151.182;2023-06-19T02:46:03;15.40;99.90
20803;DHT22;10562;-33.856;151.182;2023-06-19T02:48:35;15.40;99.90
20803;DHT22;10562;-33.856;151.182;2023-06-19T02:51:06;15.40;99.90
20803;DHT22;10562;-33.856;151.182;2023-06-19T02:53:39;15.40;99.90
20803;DHT22;10562;-33.856;151.182;2023-06-19T02:56:11;15.40;99.90
20803;DHT22;10562;-33.856;151.182;2023-06-19T02:58:42;15.40;99.90
20803;DHT22;10562;-33.856;151.182;2023-06-19T03:01:13;15.60;99.90
20803;DHT22;10562;-33.856;151.182;2023-06-19T03:03:44;15.60;99.90
20803;DHT22;10562;-33.856;151.182;2023-06-19T03:06:15;15.70;99.90
20803;DHT22;10562;-33.856;151.182;2023-06-19T03:08:50;15.80;99.90
20803;DHT22;10562;-33.856;151.182;2023-06-19T03:11:21;15.90;99.90
20803;DHT22;10562;-33.856;151.182;2023-06-19T03:13:53;16.00;99.90
20803;DHT22;10562;-33.856;151.182;2023-06-19T03:16:24;16.10;99.90
20803;DHT22;10562;-33.856;151.182;2023-06-19T03:18:55;16.00;99.90
20803;DHT22;10562;-33.856;151.182;2023-06-19T03:21:26;15.90;99.90
20803;DHT22;10562;-33.856;151.182;2023-06-19T03:23:58;16.10;99.90
20803;DHT22;10562;-33.856;151.182;2023-06-19T03:26:29;16.10;99.90
20803;DHT22;10562;-33.856;151.182;2023-06-19T03:29:00;16.10;99.90
20803;DHT22;10562;-33.856;151.182;2023-06-19T03:31:31;16.30;99.90
20803;DHT22;10562;-33.856;151.182;2023-06-19T03:34:02;16.30;99.90
20803;DHT22;10562;-33.856;151.182;2023-06-19T03:36:32;16.30;99.90
20803;DHT22;10562;-33.856;151.182;2023-06-19T03:39:05;16.20;99.90
20803;DHT22;10562;-33.856;151.182;2023-06-19T03:41:36;16.30;99.90
20803;DHT22;10562;-33.856;151.182;2023-06-19T03:44:10;16.30;99.90
20803;DHT22;10562;-33.856;151.182;2023-06-19T03:46:47;16.40;99.90
20803;DHT22;10562;-33.856;151.182;2023-06-19T03:49:19;16.50;99.90
20803;DHT22;10562;-33.856;151.182;2023-06-19T03:51:50;16.50;99.90
20803;DHT22;10562;-33.856;151.182;2023-06-19T03:54:24;16.60;99.90
20803;DHT22;10562;-33.856;151.182;2023-06-19T03:56:54;16.70;99.90
20803;DHT22;10562;-33.856;151.182;2023-06-19T03:59:25;16.70;99.90
20803;DHT22;10562;-33.856;151.182;2023-06-19T04:01:56;16.70;99.90
20803;DHT22;10562;-33.856;151.182;2023-06-19T04:04:27;16.70;99.90
20803;DHT22;10562;-33.856;151.182;2023-06-19T04:06:58;16.80;99.90
20803;DHT22;10562;-33.856;151.182;2023-06-19T04:09:30;16.70;99.90
20803;DHT22;10562;-33.856;151.182;2023-06-19T04:12:01;16.60;99.90
20803;DHT22;10562;-33.856;151.182;2023-06-19T04:14:32;16.60;99.90
20803;DHT22;10562;-33.856;151.182;2023-06-19T04:17:03;16.70;99.90
20803;DHT22;10562;-33.856;151.182;2023-06-19T04:19:34;16.80;99.90
20803;DHT22;10562;-33.856;151.182;2023-06-19T04:22:05;16.80;99.90
20803;DHT22;10562;-33.856;151.182;2023-06-19T04:24:37;16.80;99.90
20803;DHT22;10562;-33.856;151.182;2023-06-19T04:27:08;16.80;99.90
20803;DHT22;10562;-33.856;151.182;2023-06-19T04:29:39;16.80;99.90
20803;DHT22;10562;-33.856;151.182;2023-06-19T04:32:10;16.90;99.90
20803;DHT22;10562;-33.856;151.182;2023-06-19T04:34:41;16.80;99.90
20803;DHT22;10562;-33.856;151.182;2023-06-19T04:37:14;16.80;99.90
20803;DHT22;10562;-33.856;151.182;2023-06-19T04:39:48;16.90;99.90
20803;DHT22;10562;-33.856;151.182;2023-06-19T04:42:19;16.90;99.90
20803;DHT22;10562;-33.856;151.182;2023-06-19T04:44:51;16.90;99.90
20803;DHT22;10562;-33.856;151.182;2023-06-19T04:47:23;16.90;99.90
20803;DHT22;10562;-33.856;151.182;2023-06-19T04:49:54;17.00;99.90
20803;DHT22;10562;-33.856;151.182;2023-06-19T04:52:25;17.00;99.90
20803;DHT22;10562;-33.856;151.182;2023-06-19T04:54:58;17.00;99.90
20803;DHT22;10562;-33.856;151.182;2023-06-19T04:57:28;17.00;99.90
20803;DHT22;10562;-33.856;151.182;2023-06-19T04:59:59;17.00;99.90
20803;DHT22;10562;-33.856;151.182;2023-06-19T05:02:33;17.10;99.90
20803;DHT22;10562;-33.856;151.182;2023-06-19T05:05:04;17.00;99.90
20803;DHT22;10562;-33.856;151.182;2023-06-19T05:07:35;17.10;99.90
20803;DHT22;10562;-33.856;151.182;2023-06-19T05:10:08;17.00;99.90
20803;DHT22;10562;-33.856;151.182;2023-06-19T05:12:39;17.00;99.90
20803;DHT22;10562;-33.856;151.182;2023-06-19T05:15:10;17.00;99.90
20803;DHT22;10562;-33.856;151.182;2023-06-19T05:17:41;16.90;99.90
20803;DHT22;10562;-33.856;151.182;2023-06-19T05:20:14;16.90;99.90
20803;DHT22;10562;-33.856;151.182;2023-06-19T05:22:45;16.80;99.90
20803;DHT22;10562;-33.856;151.182;2023-06-19T05:25:17;16.70;99.90
20803;DHT22;10562;-33.856;151.182;2023-06-19T05:27:48;16.70;99.90
20803;DHT22;10562;-33.856;151.182;2023-06-19T05:30:19;16.60;99.90
20803;DHT22;10562;-33.856;151.182;2023-06-19T05:32:50;16.60;99.90
20803;DHT22;10562;-33.856;151.182;2023-06-19T05:35:21;16.50;99.90
20803;DHT22;10562;-33.856;151.182;2023-06-19T05:37:54;16.40;99.90
20803;DHT22;10562;-33.856;151.182;2023-06-19T05:40:26;16.40;99.90
20803;DHT22;10562;-33.856;151.182;2023-06-19T05:42:58;16.30;99.90
20803;DHT22;10562;-33.856;151.182;2023-06-19T05:45:29;16.30;99.90
20803;DHT22;10562;-33.856;151.182;2023-06-19T05:47:59;16.20;99.90
20803;DHT22;10562;-33.856;151.182;2023-06-19T05:50:30;16.20;99.90
20803;DHT22;10562;-33.856;151.182;2023-06-19T05:53:01;16.10;99.90
20803;DHT22;10562;-33.856;151.182;2023-06-19T05:55:34;16.10;99.90
20803;DHT22;10562;-33.856;151.182;2023-06-19T05:58:04;16.10;99.90
20803;DHT22;10562;-33.856;151.182;2023-06-19T06:00:35;16.00;99.90
20803;DHT22;10562;-33.856;151.182;2023-06-19T06:03:06;16.00;99.90
20803;DHT22;10562;-33.856;151.182;2023-06-19T06:05:37;16.00;99.90
20803;DHT22;10562;-33.856;151.182;2023-06-19T06:08:07;15.80;99.90
20803;DHT22;10562;-33.856;151.182;2023-06-19T06:10:40;15.80;99.90
20803;DHT22;10562;-33.856;151.182;2023-06-19T06:13:11;15.70;99.90
20803;DHT22;10562;-33.856;151.182;2023-06-19T06:15:41;15.60;99.90
20803;DHT22;10562;-33.856;151.182;2023-06-19T06:18:12;15.60;99.90
20803;DHT22;10562;-33.856;151.182;2023-06-19T06:20:43;15.50;99.90
20803;DHT22;10562;-33.856;151.182;2023-06-19T06:23:14;15.40;99.90
20803;DHT22;10562;-33.856;151.182;2023-06-19T06:25:46;15.30;99.90
20803;DHT22;10562;-33.856;151.182;2023-06-19T06:28:17;15.30;99.90
20803;DHT22;10562;-33.856;151.182;2023-06-19T06:30:48;15.30;99.90
20803;DHT22;10562;-33.856;151.182;2023-06-19T06:33:19;15.30;99.90
20803;DHT22;10562;-33.856;151.182;2023-06-19T06:35:49;15.10;99.90
20803;DHT22;10562;-33.856;151.182;2023-06-19T06:38:21;15.10;99.90
20803;DHT22;10562;-33.856;151.182;2023-06-19T06:40:53;15.10;99.90
20803;DHT22;10562;-33.856;151.182;2023-06-19T06:43:24;15.00;99.90
20803;DHT22;10562;-33.856;151.182;2023-06-19T06:45:55;14.90;99.90
20803;DHT22;10562;-33.856;151.182;2023-06-19T06:48:26;14.90;99.90
20803;DHT22;10562;-33.856;151.182;2023-06-19T06:50:58;15.00;99.90
20803;DHT22;10562;-33.856;151.182;2023-06-19T06:53:29;14.90;99.90
20803;DHT22;10562;-33.856;151.182;2023-06-19T06:56:04;14.90;99.90
20803;DHT22;10562;-33.856;151.182;2023-06-19T06:58:35;14.90;99.90
20803;DHT22;10562;-33.856;151.182;2023-06-19T07:01:06;14.90;99.90
20803;DHT22;10562;-33.856;151.182;2023-06-19T07:03:37;14.90;99.90
20803;DHT22;10562;-33.856;151.182;2023-06-19T07:06:08;14.90;99.90
20803;DHT22;10562;-33.856;151.182;2023-06-19T07:08:39;14.90;99.90
20803;DHT22;10562;-33.856;151.182;2023-06-19T07:11:11;14.80;99.90
20803;DHT22;10562;-33.856;151.182;2023-06-19T07:13:42;14.80;99.90
20803;DHT22;10562;-33.856;151.182;2023-06-19T07:16:13;14.60;99.90
20803;DHT22;10562;-33.856;151.182;2023-06-19T07:18:44;14.50;99.90
20803;DHT22;10562;-33.856;151.182;2023-06-19T07:21:15;14.40;99.90
20803;DHT22;10562;-33.856;151.182;2023-06-19T07:23:46;14.40;99.90
20803;DHT22;10562;-33.856;151.182;2023-06-19T07:26:19;14.20;99.90
20803;DHT22;10562;-33.856;151.182;2023-06-19T07:28:50;14.10;99.90
20803;DHT22;10562;-33.856;151.182;2023-06-19T07:31:21;14.10;99.90
20803;DHT22;10562;-33.856;151.182;2023-06-19T07:33:52;14.00;99.90
20803;DHT22;10562;-33.856;151.182;2023-06-19T07:36:22;14.00;99.90
20803;DHT22;10562;-33.856;151.182;2023-06-19T07:38:54;13.90;99.90
20803;DHT22;10562;-33.856;151.182;2023-06-19T07:41:27;13.80;99.90
20803;DHT22;10562;-33.856;151.182;2023-06-19T07:43:58;13.80;99.90
20803;DHT22;10562;-33.856;151.182;2023-06-19T07:46:29;13.90;99.90
20803;DHT22;10562;-33.856;151.182;2023-06-19T07:49:00;13.80;99.90
20803;DHT22;10562;-33.856;151.182;2023-06-19T07:51:30;13.70;99.90
20803;DHT22;10562;-33.856;151.182;2023-06-19T07:54:01;13.40;99.90
20803;DHT22;10562;-33.856;151.182;2023-06-19T07:56:34;13.30;99.90
20803;DHT22;10562;-33.856;151.182;2023-06-19T07:59:05;13.30;99.90
20803;DHT22;10562;-33.856;151.182;2023-06-19T08:01:35;13.30;99.90
20803;DHT22;10562;-33.856;151.182;2023-06-19T08:04:06;13.20;99.90
20803;DHT22;10562;-33.856;151.182;2023-06-19T08:06:37;13.10;99.90
20803;DHT22;10562;-33.856;151.182;2023-06-19T08:09:08;13.10;99.90
20803;DHT22;10562;-33.856;151.182;2023-06-19T08:11:41;12.90;99.90
20803;DHT22;10562;-33.856;151.182;2023-06-19T08:14:11;12.80;99.90
20803;DHT22;10562;-33.856;151.182;2023-06-19T08:16:42;12.80;99.90
20803;DHT22;10562;-33.856;151.182;2023-06-19T08:19:13;12.80;99.90
20803;DHT22;10562;-33.856;151.182;2023-06-19T08:21:44;12.90;99.90
20803;DHT22;10562;-33.856;151.182;2023-06-19T08:24:14;12.80;99.90
20803;DHT22;10562;-33.856;151.182;2023-06-19T08:26:47;12.70;99.90
20803;DHT22;10562;-33.856;151.182;2023-06-19T08:29:19;12.70;99.90
20803;DHT22;10562;-33.856;151.182;2023-06-19T08:31:50;12.90;99.90
20803;DHT22;10562;-33.856;151.182;2023-06-19T08:34:21;12.80;99.90
20803;DHT22;10562;-33.856;151.182;2023-06-19T08:36:52;13.00;99.90
20803;DHT22;10562;-33.856;151.182;2023-06-19T08:39:22;13.00;99.90
20803;DHT22;10562;-33.856;151.182;2023-06-19T08:41:55;12.90;99.90
20803;DHT22;10562;-33.856;151.182;2023-06-19T08:44:26;12.80;99.90
20803;DHT22;10562;-33.856;151.182;2023-06-19T08:46:58;13.00;99.90
20803;DHT22;10562;-33.856;151.182;2023-06-19T08:49:31;13.00;99.90
20803;DHT22;10562;-33.856;151.182;2023-06-19T08:52:04;12.90;99.90
20803;DHT22;10562;-33.856;151.182;2023-06-19T08:54:36;13.00;99.90
20803;DHT22;10562;-33.856;151.182;2023-06-19T08:57:13;13.10;99.90
20803;DHT22;10562;-33.856;151.182;2023-06-19T08:59:49;13.10;99.90
20803;DHT22;10562;-33.856;151.182;2023-06-19T09:02:20;13.00;99.90
20803;DHT22;10562;-33.856;151.182;2023-06-19T09:04:51;12.90;99.90
20803;DHT22;10562;-33.856;151.182;2023-06-19T09:07:22;12.80;99.90
20803;DHT22;10562;-33.856;151.182;2023-06-19T09:09:52;12.80;99.90
20803;DHT22;10562;-33.856;151.182;2023-06-19T09:12:27;12.70;99.90
20803;DHT22;10562;-33.856;151.182;2023-06-19T09:14:58;12.70;99.90
20803;DHT22;10562;-33.856;151.182;2023-06-19T09:17:29;12.60;99.90
20803;DHT22;10562;-33.856;151.182;2023-06-19T09:20:01;12.40;99.90
20803;DHT22;10562;-33.856;151.182;2023-06-19T09:22:33;12.30;99.90
20803;DHT22;10562;-33.856;151.182;2023-06-19T09:25:04;12.20;99.90
20803;DHT22;10562;-33.856;151.182;2023-06-19T09:27:39;12.10;99.90
20803;DHT22;10562;-33.856;151.182;2023-06-19T09:30:16;12.10;99.90
20803;DHT22;10562;-33.856;151.182;2023-06-19T09:32:46;11.90;99.90
20803;DHT22;10562;-33.856;151.182;2023-06-19T09:35:17;12.00;99.90
20803;DHT22;10562;-33.856;151.182;2023-06-19T09:37:48;11.80;99.90
20803;DHT22;10562;-33.856;151.182;2023-06-19T09:40:19;11.70;99.90
20803;DHT22;10562;-33.856;151.182;2023-06-19T09:42:55;11.60;99.90
20803;DHT22;10562;-33.856;151.182;2023-06-19T09:45:27;11.50;99.90
20803;DHT22;10562;-33.856;151.182;2023-06-19T09:47:59;11.50;99.90
20803;DHT22;10562;-33.856;151.182;2023-06-19T09:50:30;11.60;99.90
20803;DHT22;10562;-33.856;151.182;2023-06-19T09:53:02;11.80;99.90
20803;DHT22;10562;-33.856;151.182;2023-06-19T09:55:34;11.90;99.90
20803;DHT22;10562;-33.856;151.182;2023-06-19T09:58:10;12.20;99.90
20803;DHT22;10562;-33.856;151.182;2023-06-19T10:00:41;12.40;99.90
20803;DHT22;10562;-33.856;151.182;2023-06-19T10:03:13;12.70;99.90
20803;DHT22;10562;-33.856;151.182;2023-06-19T10:05:44;12.80;99.90
20803;DHT22;10562;-33.856;151.182;2023-06-19T10:08:25;13.00;99.90
20803;DHT22;10562;-33.856;151.182;2023-06-19T10:10:56;13.00;99.90
20803;DHT22;10562;-33.856;151.182;2023-06-19T10:13:35;13.10;99.90
20803;DHT22;10562;-33.856;151.182;2023-06-19T10:16:06;13.10;99.90
20803;DHT22;10562;-33.856;151.182;2023-06-19T10:18:46;13.10;99.90
20803;DHT22;10562;-33.856;151.182;2023-06-19T10:21:20;13.10;99.90
20803;DHT22;10562;-33.856;151.182;2023-06-19T10:23:55;13.10;99.90
20803;DHT22;10562;-33.856;151.182;2023-06-19T10:26:35;13.00;99.90
20803;DHT22;10562;-33.856;151.182;2023-06-19T10:29:17;13.00;99.90
20803;DHT22;10562;-33.856;151.182;2023-06-19T10:31:47;13.00;99.90
20803;DHT22;10562;-33.856;151.182;2023-06-19T10:34:18;13.00;99.90
20803;DHT22;10562;-33.856;151.182;2023-06-19T10:36:49;12.90;99.90
20803;DHT22;10562;-33.856;151.182;2023-06-19T10:39:20;12.90;99.90
20803;DHT22;10562;-33.856;151.182;2023-06-19T10:41:51;12.90;99.90
20803;DHT22;10562;-33.856;151.182;2023-06-19T10:44:24;12.80;99.90
20803;DHT22;10562;-33.856;151.182;2023-06-19T10:46:55;12.80;99.90
20803;DHT22;10562;-33.856;151.182;2023-06-19T10:49:26;12.70;99.90
20803;DHT22;10562;-33.856;151.182;2023-06-19T10:52:00;12.70;99.90
20803;DHT22;10562;-33.856;151.182;2023-06-19T10:54:31;12.70;99.90
20803;DHT22;10562;-33.856;151.182;2023-06-19T10:57:05;12.70;99.90
20803;DHT22;10562;-33.856;151.182;2023-06-19T10:59:38;12.60;99.90
20803;DHT22;10562;-33.856;151.182;2023-06-19T11:02:10;12.60;99.90
20803;DHT22;10562;-33.856;151.182;2023-06-19T11:04:41;12.50;99.90
20803;DHT22;10562;-33.856;151.182;2023-06-19T11:07:13;12.50;99.90
20803;DHT22;10562;-33.856;151.182;2023-06-19T11:09:44;12.60;99.90
20803;DHT22;10562;-33.856;151.182;2023-06-19T11:12:20;12.60;99.90
20803;DHT22;10562;-33.856;151.182;2023-06-19T11:14:52;12.70;99.90
20803;DHT22;10562;-33.856;151.182;2023-06-19T11:17:23;12.80;99.90
20803;DHT22;10562;-33.856;151.182;2023-06-19T11:19:56;12.80;99.90
20803;DHT22;10562;-33.856;151.182;2023-06-19T11:22:38;12.70;99.90
20803;DHT22;10562;-33.856;151.182;2023-06-19T11:25:10;12.70;99.90
20803;DHT22;10562;-33.856;151.182;2023-06-19T11:27:44;12.80;99.90
20803;DHT22;10562;-33.856;151.182;2023-06-19T11:30:31;12.80;99.90
20803;DHT22;10562;-33.856;151.182;2023-06-19T11:33:03;13.00;99.90
20803;DHT22;10562;-33.856;151.182;2023-06-19T11:35:37;13.00;99.90
20803;DHT22;10562;-33.856;151.182;2023-06-19T11:38:07;13.00;99.90
20803;DHT22;10562;-33.856;151.182;2023-06-19T11:40:42;13.10;99.90
20803;DHT22;10562;-33.856;151.182;2023-06-19T11:43:23;13.10;99.90
20803;DHT22;10562;-33.856;151.182;2023-06-19T11:46:02;13.10;99.90
20803;DHT22;10562;-33.856;151.182;2023-06-19T11:48:35;13.10;99.90
20803;DHT22;10562;-33.856;151.182;2023-06-19T11:51:06;13.00;99.90
20803;DHT22;10562;-33.856;151.182;2023-06-19T11:53:37;12.90;99.90
20803;DHT22;10562;-33.856;151.182;2023-06-19T11:56:08;12.90;99.90
20803;DHT22;10562;-33.856;151.182;2023-06-19T11:58:39;12.80;99.90
20803;DHT22;10562;-33.856;151.182;2023-06-19T12:01:14;12.80;99.90
20803;DHT22;10562;-33.856;151.182;2023-06-19T12:03:45;12.70;99.90
20803;DHT22;10562;-33.856;151.182;2023-06-19T12:06:17;12.60;99.90
20803;DHT22;10562;-33.856;151.182;2023-06-19T12:08:48;12.60;99.90
20803;DHT22;10562;-33.856;151.182;2023-06-19T12:11:19;12.50;99.90
20803;DHT22;10562;-33.856;151.182;2023-06-19T12:13:50;12.60;99.90
20803;DHT22;10562;-33.856;151.182;2023-06-19T12:16:23;12.60;99.90
20803;DHT22;10562;-33.856;151.182;2023-06-19T12:18:55;12.50;99.90
20803;DHT22;10562;-33.856;151.182;2023-06-19T12:21:26;12.30;99.90
20803;DHT22;10562;-33.856;151.182;2023-06-19T12:23:56;12.20;99.90
20803;DHT22;10562;-33.856;151.182;2023-06-19T12:26:27;12.20;99.90
20803;DHT22;10562;-33.856;151.182;2023-06-19T12:28:58;12.00;99.90
20803;DHT22;10562;-33.856;151.182;2023-06-19T12:31:33;12.00;99.90
20803;DHT22;10562;-33.856;151.182;2023-06-19T12:34:04;11.90;99.90
20803;DHT22;10562;-33.856;151.182;2023-06-19T12:36:35;11.80;99.90
20803;DHT22;10562;-33.856;151.182;2023-06-19T12:39:06;11.90;99.90
20803;DHT22;10562;-33.856;151.182;2023-06-19T12:41:43;11.80;99.90
20803;DHT22;10562;-33.856;151.182;2023-06-19T12:44:15;11.80;99.90
20803;DHT22;10562;-33.856;151.182;2023-06-19T12:46:48;11.80;99.90
20803;DHT22;10562;-33.856;151.182;2023-06-19T12:49:19;11.70;99.90
20803;DHT22;10562;-33.856;151.182;2023-06-19T12:51:49;11.70;99.90
20803;DHT22;10562;-33.856;151.182;2023-06-19T12:54:20;11.70;99.90
20803;DHT22;10562;-33.856;151.182;2023-06-19T12:56:51;11.70;99.90
20803;DHT22;10562;-33.856;151.182;2023-06-19T12:59:22;11.60;99.90
20803;DHT22;10562;-33.856;151.182;2023-06-19T13:01:55;11.60;99.90
20803;DHT22;10562;-33.856;151.182;2023-06-19T13:04:25;11.50;99.90
20803;DHT22;10562;-33.856;151.182;2023-06-19T13:06:56;11.40;99.90
20803;DHT22;10562;-33.856;151.182;2023-06-19T13:09:27;11.40;99.90
20803;DHT22;10562;-33.856;151.182;2023-06-19T13:11:58;11.30;99.90
20803;DHT22;10562;-33.856;151.182;2023-06-19T13:14:30;11.40;99.90
20803;DHT22;10562;-33.856;151.182;2023-06-19T13:17:02;11.30;99.90
20803;DHT22;10562;-33.856;151.182;2023-06-19T13:19:33;11.20;99.90
20803;DHT22;10562;-33.856;151.182;2023-06-19T13:22:04;11.20;99.90
20803;DHT22;10562;-33.856;151.182;2023-06-19T13:24:35;11.40;99.90
20803;DHT22;10562;-33.856;151.182;2023-06-19T13:27:06;11.40;99.90
20803;DHT22;10562;-33.856;151.182;2023-06-19T13:29:37;11.30;99.90
20803;DHT22;10562;-33.856;151.182;2023-06-19T13:32:10;11.20;99.90
20803;DHT22;10562;-33.856;151.182;2023-06-19T13:34:41;11.20;99.90
20803;DHT22;10562;-33.856;151.182;2023-06-19T13:37:11;11.20;99.90
20803;DHT22;10562;-33.856;151.182;2023-06-19T13:39:42;11.10;99.90
20803;DHT22;10562;-33.856;151.182;2023-06-19T13:42:13;11.00;99.90
20803;DHT22;10562;-33.856;151.182;2023-06-19T13:44:44;11.00;99.90
20803;DHT22;10562;-33.856;151.182;2023-06-19T13:47:16;11.00;99.90
20803;DHT22;10562;-33.856;151.182;2023-06-19T13:49:48;10.90;99.90
20803;DHT22;10562;-33.856;151.182;2023-06-19T13:52:19;10.90;99.90
20803;DHT22;10562;-33.856;151.182;2023-06-19T13:54:50;10.80;99.90
20803;DHT22;10562;-33.856;151.182;2023-06-19T13:57:21;10.80;99.90
20803;DHT22;10562;-33.856;151.182;2023-06-19T13:59:51;10.60;99.90
20803;DHT22;10562;-33.856;151.182;2023-06-19T14:02:24;10.40;99.90
20803;DHT22;10562;-33.856;151.182;2023-06-19T14:04:55;10.40;99.90
20803;DHT22;10562;-33.856;151.182;2023-06-19T14:07:26;10.40;99.90
20803;DHT22;10562;-33.856;151.182;2023-06-19T14:09:56;10.30;99.90
20803;DHT22;10562;-33.856;151.182;2023-06-19T14:12:27;10.20;99.90
20803;DHT22;10562;-33.856;151.182;2023-06-19T14:14:58;10.10;99.90
20803;DHT22;10562;-33.856;151.182;2023-06-19T14:17:31;10.00;99.90
20803;DHT22;10562;-33.856;151.182;2023-06-19T14:20:02;10.00;99.90
20803;DHT22;10562;-33.856;151.182;2023-06-19T14:22:34;10.00;99.90
20803;DHT22;10562;-33.856;151.182;2023-06-19T14:25:06;10.10;99.90
20803;DHT22;10562;-33.856;151.182;2023-06-19T14:27:36;10.10;99.90
20803;DHT22;10562;-33.856;151.182;2023-06-19T14:30:08;10.10;99.90
20803;DHT22;10562;-33.856;151.182;2023-06-19T14:32:41;10.10;99.90
20803;DHT22;10562;-33.856;151.182;2023-06-19T14:35:11;10.10;99.90
20803;DHT22;10562;-33.856;151.182;2023-06-19T14:37:42;10.10;99.90
20803;DHT22;10562;-33.856;151.182;2023-06-19T14:40:13;9.90;99.90
20803;DHT22;10562;-33.856;151.182;2023-06-19T14:42:44;9.80;99.90
20803;DHT22;10562;-33.856;151.182;2023-06-19T14:45:14;9.80;99.90
20803;DHT22;10562;-33.856;151.182;2023-06-19T14:47:47;9.70;99.90
20803;DHT22;10562;-33.856;151.182;2023-06-19T14:50:18;9.70;99.90
20803;DHT22;10562;-33.856;151.182;2023-06-19T14:52:49;9.60;99.90
20803;DHT22;10562;-33.856;151.182;2023-06-19T14:55:19;9.50;99.90
20803;DHT22;10562;-33.856;151.182;2023-06-19T14:57:50;9.40;99.90
20803;DHT22;10562;-33.856;151.182;2023-06-19T15:00:21;9.40;99.90
20803;DHT22;10562;-33.856;151.182;2023-06-19T15:02:53;9.40;99.90
20803;DHT22;10562;-33.856;151.182;2023-06-19T15:05:24;9.50;99.90
20803;DHT22;10562;-33.856;151.182;2023-06-19T15:07:55;9.60;99.90
20803;DHT22;10562;-33.856;151.182;2023-06-19T15:10:26;9.70;99.90
20803;DHT22;10562;-33.856;151.182;2023-06-19T15:12:57;9.80;99.90
20803;DHT22;10562;-33.856;151.182;2023-06-19T15:15:27;9.70;99.90